Time;durP1;ratioP1;P1;durP2;ratioP2;P2;SDS_P1;SDS_P2;PMS_P1;PMS_P2;Temp;Humidity;BMP_temperature;BMP_pressure;BME280_temperature;BME280_humidity;BME280_pressure;Samples;Min_cycle;Max_cycle;Signal;HPM_P1;HPM_P2
2023/08/15 00:01:00;;;;;;;9.18;5.95;;;;;22.30;98440.00;;;;5054663;28;20059;-63
2023/08/15 00:03:27;;;;;;;7.63;6.07;;;;;22.30;98442.00;;;;5072735;28;20040;-64
2023/08/15 00:05:54;;;;;;;14.70;5.72;;;;;22.30;98444.00;;;;5072745;28;20047;-64
2023/08/15 00:08:20;;;;;;;8.43;5.50;;;;;22.40;98444.00;;;;5072719;28;20482;-64
2023/08/15 00:10:47;;;;;;;6.50;5.68;;;;;22.20;98435.00;;;;5072246;28;20510;-63
2023/08/15 00:13:13;;;;;;;8.93;5.63;;;;;22.10;98428.00;;;;5072512;28;20493;-62
2023/08/15 00:15:40;;;;;;;8.00;5.80;;;;;22.20;98429.00;;;;5072499;28;20540;-62
2023/08/15 00:18:07;;;;;;;8.63;5.30;;;;;22.30;98432.00;;;;5072419;28;20424;-63
2023/08/15 00:20:33;;;;;;;6.57;5.30;;;;;22.40;98426.00;;;;5072055;28;20037;-63
2023/08/15 00:23:00;;;;;;;10.73;5.90;;;;;22.60;98418.00;;;;5072518;28;20056;-63
2023/08/15 00:25:27;;;;;;;6.65;5.80;;;;;22.70;98419.00;;;;5054422;28;20493;-63
2023/08/15 00:27:53;;;;;;;11.65;5.85;;;;;22.70;98419.00;;;;5054514;28;20114;-63
2023/08/15 00:30:20;;;;;;;10.40;6.68;;;;;22.70;98425.00;;;;5072123;28;20048;-63
2023/08/15 00:32:46;;;;;;;8.57;5.63;;;;;22.70;98430.00;;;;5054623;28;20041;-62
2023/08/15 00:35:13;;;;;;;7.53;6.07;;;;;22.60;98421.00;;;;5054055;28;20526;-63
2023/08/15 00:37:41;;;;;;;8.35;5.60;;;;;22.60;98419.00;;;;5038042;28;20533;-63
2023/08/15 00:40:08;;;;;;;13.20;5.35;;;;;22.60;98413.00;;;;5071872;28;20041;-63
2023/08/15 00:42:34;;;;;;;7.45;5.95;;;;;22.50;98406.00;;;;5037685;28;20139;-63
2023/08/15 00:45:01;;;;;;;7.47;5.78;;;;;22.30;98408.00;;;;5072191;28;20040;-63
2023/08/15 00:47:28;;;;;;;12.20;6.13;;;;;22.20;98415.00;;;;5054086;28;20051;-63
2023/08/15 00:49:55;;;;;;;10.63;6.10;;;;;22.20;98408.00;;;;5053915;28;20040;-63
2023/08/15 00:52:22;;;;;;;10.50;6.05;;;;;22.10;98406.00;;;;5071953;28;20041;-64
2023/08/15 00:54:50;;;;;;;8.73;6.22;;;;;22.10;98402.00;;;;5072059;28;20041;-63
2023/08/15 00:57:18;;;;;;;7.45;5.57;;;;;22.00;98391.00;;;;5073125;28;20040;-64
2023/08/15 00:59:45;;;;;;;8.32;5.65;;;;;22.10;98401.00;;;;5071957;28;20049;-64
2023/08/15 01:02:12;;;;;;;8.63;5.97;;;;;22.20;98414.00;;;;5071989;28;20055;-64
2023/08/15 01:04:40;;;;;;;9.82;5.90;;;;;22.20;98412.00;;;;5053964;28;20516;-64
2023/08/15 01:07:09;;;;;;;11.63;6.00;;;;;22.20;98409.00;;;;5053984;28;20469;-64
2023/08/15 01:09:36;;;;;;;10.30;6.10;;;;;22.10;98399.00;;;;5071798;28;20070;-64
2023/08/15 01:12:24;;;;;;;7.60;6.00;;;;;22.10;98405.00;;;;5053957;28;20044;-64
2023/08/15 01:15:08;;;;;;;9.30;5.93;;;;;22.10;98417.00;;;;5053818;28;20539;-64
2023/08/15 01:17:44;;;;;;;9.95;6.05;;;;;22.20;98421.00;;;;5054025;28;20520;-63
2023/08/15 01:20:15;;;;;;;7.95;5.07;;;;;22.20;98424.00;;;;5038339;28;20048;-63
2023/08/15 01:22:46;;;;;;;7.43;5.68;;;;;22.10;98425.00;;;;5054165;28;20075;-63
2023/08/15 01:25:13;;;;;;;7.95;5.63;;;;;22.20;98427.00;;;;5053904;28;20045;-63
2023/08/15 01:27:40;;;;;;;6.50;5.20;;;;;22.30;98437.00;;;;5054713;28;20153;-64
2023/08/15 01:30:07;;;;;;;8.52;5.50;;;;;22.40;98477.00;;;;5054105;28;20070;-64
2023/08/15 01:32:41;;;;;;;8.60;6.30;;;;;22.40;98521.00;;;;5072268;28;20040;-64
2023/08/15 01:35:15;;;;;;;8.40;6.40;;;;;22.30;98558.00;;;;5072191;28;20416;-64
2023/08/15 01:37:51;;;;;;;7.47;6.15;;;;;22.10;98540.00;;;;5072367;28;20454;-64
2023/08/15 01:40:20;;;;;;;6.35;5.75;;;;;22.10;98549.00;;;;5054056;28;20118;-64
2023/08/15 01:42:49;;;;;;;8.00;6.55;;;;;22.00;98534.00;;;;5054664;28;20131;-65
2023/08/15 01:45:17;;;;;;;11.60;6.10;;;;;22.00;98527.00;;;;5054266;28;20091;-64
2023/08/15 01:47:44;;;;;;;7.55;5.95;;;;;22.00;98523.00;;;;5072591;28;20051;-64
2023/08/15 01:50:11;;;;;;;8.48;5.50;;;;;22.00;98511.00;;;;5054135;28;20102;-64
2023/08/15 01:52:37;;;;;;;7.03;5.00;;;;;22.00;98496.00;;;;5071859;28;20040;-63
2023/08/15 01:55:04;;;;;;;10.52;5.60;;;;;22.10;98507.00;;;;5071573;28;20070;-64
2023/08/15 01:57:30;;;;;;;7.45;4.15;;;;;22.10;98550.00;;;;5071794;28;20059;-64
2023/08/15 01:59:57;;;;;;;6.00;4.90;;;;;22.10;98573.00;;;;5054212;28;20040;-64
2023/08/15 02:02:24;;;;;;;10.05;4.85;;;;;22.10;98530.00;;;;5054060;28;20044;-64
2023/08/15 02:04:51;;;;;;;6.15;3.80;;;;;22.10;98511.00;;;;5072203;28;20071;-63
2023/08/15 02:07:18;;;;;;;7.18;4.20;;;;;22.10;98512.00;;;;5054765;28;20044;-64
2023/08/15 02:09:45;;;;;;;7.25;4.93;;;;;22.10;98492.00;;;;5055753;28;20395;-64
2023/08/15 02:12:11;;;;;;;7.00;4.20;;;;;22.10;98485.00;;;;5076049;28;20041;-64
2023/08/15 02:14:38;;;;;;;8.38;4.78;;;;;22.00;98466.00;;;;5075329;28;20041;-64
2023/08/15 02:17:06;;;;;;;6.97;4.28;;;;;21.80;98422.00;;;;5075956;28;20087;-64
2023/08/15 02:19:32;;;;;;;10.32;4.75;;;;;21.80;98403.00;;;;5057600;28;20590;-64
2023/08/15 02:21:59;;;;;;;7.90;4.78;;;;;21.70;98380.00;;;;5057739;28;20049;-64
2023/08/15 02:24:25;;;;;;;9.52;4.97;;;;;21.60;98383.00;;;;5076304;28;20079;-65
2023/08/15 02:26:52;;;;;;;8.52;4.55;;;;;21.60;98383.00;;;;5057907;28;20068;-64
2023/08/15 02:29:19;;;;;;;7.13;4.00;;;;;21.70;98386.00;;;;5057180;28;20094;-64
2023/08/15 02:31:47;;;;;;;5.75;3.85;;;;;21.70;98383.00;;;;5057769;28;20056;-64
2023/08/15 02:34:18;;;;;;;8.10;4.28;;;;;21.70;98384.00;;;;5075834;28;20037;-64
2023/08/15 02:36:46;;;;;;;4.25;3.85;;;;;21.70;98394.00;;;;5076867;28;20078;-64
2023/08/15 02:39:14;;;;;;;5.07;4.20;;;;;21.80;98405.00;;;;5077018;28;20059;-64
2023/08/15 02:41:41;;;;;;;3.65;3.33;;;;;21.80;98402.00;;;;5077682;28;20486;-64
2023/08/15 02:44:08;;;;;;;6.00;3.53;;;;;21.70;98408.00;;;;5059980;28;20098;-64
2023/08/15 02:46:35;;;;;;;4.82;3.88;;;;;21.70;98402.00;;;;5077867;28;20123;-65
2023/08/15 02:49:02;;;;;;;5.72;3.90;;;;;21.60;98408.00;;;;5078045;28;20067;-64
2023/08/15 02:51:28;;;;;;;9.55;4.05;;;;;21.60;98410.00;;;;5076692;28;20047;-64
2023/08/15 02:53:55;;;;;;;6.35;4.57;;;;;21.60;98416.00;;;;5056594;28;20056;-64
2023/08/15 02:56:21;;;;;;;6.28;4.30;;;;;21.60;98407.00;;;;5040191;28;20048;-64
2023/08/15 02:58:48;;;;;;;5.20;3.72;;;;;21.60;98397.00;;;;5057984;28;20049;-64
2023/08/15 03:01:14;;;;;;;6.85;4.10;;;;;21.50;98403.00;;;;5058193;28;20076;-64
2023/08/15 03:03:41;;;;;;;4.68;4.10;;;;;21.60;98409.00;;;;5058312;28;20090;-65
2023/08/15 03:06:07;;;;;;;6.57;4.28;;;;;21.70;98413.00;;;;5078231;28;20044;-65
2023/08/15 03:08:34;;;;;;;15.52;12.68;;;;;21.70;98416.00;;;;5059299;28;20049;-65
2023/08/15 03:11:02;;;;;;;5.80;4.30;;;;;21.70;98427.00;;;;5077314;28;20033;-65
2023/08/15 03:13:28;;;;;;;5.55;4.20;;;;;21.80;98439.00;;;;5057945;28;20127;-64
2023/08/15 03:15:56;;;;;;;8.45;4.43;;;;;21.90;98456.00;;;;5057219;28;20044;-64
2023/08/15 03:18:26;;;;;;;5.18;3.75;;;;;21.90;98483.00;;;;5057123;28;20048;-64
2023/08/15 03:21:02;;;;;;;5.47;4.22;;;;;21.80;98503.00;;;;5055971;28;20048;-64
2023/08/15 03:23:30;;;;;;;6.90;4.40;;;;;21.70;98515.00;;;;5040158;28;20058;-63
2023/08/15 03:25:58;;;;;;;6.55;3.70;;;;;21.60;98527.00;;;;5038994;28;20040;-63
2023/08/15 03:28:29;;;;;;;5.85;3.42;;;;;21.60;98548.00;;;;5056508;28;20139;-64
2023/08/15 03:30:56;;;;;;;5.72;3.78;;;;;21.60;98540.00;;;;5054580;28;20036;-63
2023/08/15 03:33:25;;;;;;;5.13;3.38;;;;;21.60;98546.00;;;;5054803;28;20067;-63
2023/08/15 03:35:52;;;;;;;4.00;3.60;;;;;21.60;98526.00;;;;5055432;28;20590;-63
2023/08/15 03:38:20;;;;;;;6.90;3.15;;;;;21.60;98566.00;;;;5055365;28;20428;-63
2023/08/15 03:40:49;;;;;;;7.20;3.38;;;;;21.60;98555.00;;;;5055456;28;20051;-63
2023/08/15 03:43:16;;;;;;;5.93;3.92;;;;;21.60;98539.00;;;;5055837;28;20478;-63
2023/08/15 03:45:42;;;;;;;5.75;3.15;;;;;21.60;98560.00;;;;5073195;28;20044;-63
2023/08/15 03:48:09;;;;;;;5.82;3.20;;;;;21.70;98560.00;;;;5055057;28;20143;-64
2023/08/15 03:50:37;;;;;;;5.82;2.92;;;;;21.80;98567.00;;;;5055017;28;20049;-64
2023/08/15 03:53:04;;;;;;;5.22;3.60;;;;;21.80;98569.00;;;;5055596;28;20502;-62
2023/08/15 03:55:31;;;;;;;3.70;2.92;;;;;21.80;98564.00;;;;5072923;28;20045;-62
2023/08/15 03:57:58;;;;;;;7.70;3.50;;;;;21.80;98572.00;;;;5055136;28;20048;-62
2023/08/15 04:00:25;;;;;;;6.72;3.30;;;;;21.70;98584.00;;;;5072593;28;20051;-63
2023/08/15 04:02:51;;;;;;;6.63;3.30;;;;;21.70;98572.00;;;;5055180;28;20048;-63
2023/08/15 04:05:18;;;;;;;8.93;3.55;;;;;21.60;98561.00;;;;5054702;28;20060;-63
2023/08/15 04:07:45;;;;;;;6.07;3.97;;;;;21.60;98571.00;;;;5038156;28;20628;-62
2023/08/15 04:10:13;;;;;;;5.60;3.50;;;;;21.50;98557.00;;;;5072461;28;20072;-62
2023/08/15 04:12:40;;;;;;;3.55;3.22;;;;;21.40;98553.00;;;;5055038;28;20052;-63
2023/08/15 04:15:07;;;;;;;7.82;4.43;;;;;21.40;98541.00;;;;5054381;28;20160;-63
2023/08/15 04:17:33;;;;;;;11.55;6.13;;;;;21.50;98541.00;;;;5054746;28;20521;-64
2023/08/15 04:20:00;;;;;;;10.40;4.35;;;;;21.50;98547.00;;;;5037818;28;20386;-60
2023/08/15 04:22:27;;;;;;;7.53;3.70;;;;;21.60;98543.00;;;;5054346;28;20055;-61
2023/08/15 04:24:53;;;;;;;6.88;4.90;;;;;21.60;98528.00;;;;5054412;28;20509;-62
2023/08/15 04:27:20;;;;;;;9.38;5.22;;;;;21.40;98516.00;;;;5054289;28;20525;-62
2023/08/15 04:29:47;;;;;;;6.32;4.78;;;;;21.30;98510.00;;;;5037954;28;20439;-64
2023/08/15 04:32:13;;;;;;;4.80;3.78;;;;;21.40;98514.00;;;;5053839;28;20044;-63
2023/08/15 04:34:40;;;;;;;4.25;3.65;;;;;21.50;98524.00;;;;5053842;28;20048;-63
2023/08/15 04:37:07;;;;;;;6.45;3.65;;;;;21.70;98516.00;;;;5054271;28;20048;-63
2023/08/15 04:39:33;;;;;;;7.72;4.30;;;;;21.70;98516.00;;;;5054158;28;20045;-62
2023/08/15 04:42:00;;;;;;;6.88;4.20;;;;;21.80;98512.00;;;;5072026;28;20064;-63
2023/08/15 04:44:26;;;;;;;7.43;4.30;;;;;21.70;98497.00;;;;5053933;28;20050;-62
2023/08/15 04:46:54;;;;;;;6.43;4.18;;;;;21.70;98497.00;;;;5054150;28;20041;-62
2023/08/15 04:49:20;;;;;;;6.38;4.50;;;;;21.70;98495.00;;;;5053964;28;20497;-62
2023/08/15 04:51:47;;;;;;;4.47;3.78;;;;;21.70;98498.00;;;;5054022;28;20041;-63
2023/08/15 04:54:14;;;;;;;6.97;4.85;;;;;21.60;98495.00;;;;5054001;28;20047;-62
2023/08/15 04:56:41;;;;;;;5.60;3.88;;;;;21.60;98488.00;;;;5037628;28;20049;-63
2023/08/15 04:59:07;;;;;;;7.28;4.32;;;;;21.70;98486.00;;;;5054173;28;20040;-63
2023/08/15 05:01:34;;;;;;;6.93;4.55;;;;;21.70;98483.00;;;;5053830;28;20080;-63
2023/08/15 05:04:01;;;;;;;4.63;3.72;;;;;21.80;98482.00;;;;5053522;28;20135;-63
2023/08/15 05:06:28;;;;;;;6.05;3.70;;;;;21.90;98474.00;;;;5053934;28;20135;-63
2023/08/15 05:08:56;;;;;;;5.35;3.33;;;;;21.90;98482.00;;;;5054130;28;20048;-63
2023/08/15 05:11:22;;;;;;;4.35;3.30;;;;;21.90;98476.00;;;;5053675;28;20139;-63
2023/08/15 05:13:49;;;;;;;6.25;3.42;;;;;21.90;98473.00;;;;5053947;28;20425;-63
2023/08/15 05:16:17;;;;;;;5.60;3.30;;;;;22.00;98485.00;;;;5037151;28;20045;-63
2023/08/15 05:18:43;;;;;;;6.40;3.67;;;;;22.00;98490.00;;;;5053648;28;20044;-63
2023/08/15 05:21:10;;;;;;;6.47;4.60;;;;;22.10;98493.00;;;;5053796;28;20037;-64
2023/08/15 05:23:37;;;;;;;5.70;4.20;;;;;22.10;98493.00;;;;5053647;28;20048;-63
2023/08/15 05:26:03;;;;;;;6.03;4.00;;;;;22.00;98484.00;;;;5053684;28;20131;-63
2023/08/15 05:28:30;;;;;;;4.13;3.60;;;;;21.90;98485.00;;;;5053702;28;20044;-64
2023/08/15 05:30:58;;;;;;;5.63;4.10;;;;;22.00;98486.00;;;;5053540;28;20052;-64
2023/08/15 05:33:25;;;;;;;6.78;3.97;;;;;22.00;98501.00;;;;5054161;28;20048;-64
2023/08/15 05:35:52;;;;;;;4.15;3.50;;;;;22.00;98501.00;;;;5071922;28;20045;-64
2023/08/15 05:38:19;;;;;;;4.22;3.75;;;;;22.00;98498.00;;;;5054339;28;20560;-63
2023/08/15 05:40:45;;;;;;;5.50;3.80;;;;;21.90;98494.00;;;;5053441;28;20045;-64
2023/08/15 05:43:12;;;;;;;5.47;3.50;;;;;22.00;98491.00;;;;5071372;28;20472;-65
2023/08/15 05:45:38;;;;;;;3.90;3.10;;;;;21.90;98499.00;;;;5056386;28;20417;-64
2023/08/15 05:48:05;;;;;;;7.05;3.70;;;;;21.90;98494.00;;;;5075558;28;20051;-64
2023/08/15 05:50:34;;;;;;;4.25;3.00;;;;;21.90;98501.00;;;;5074724;28;20044;-63
2023/08/15 05:53:00;;;;;;;5.50;2.80;;;;;22.00;98492.00;;;;5075225;28;20130;-63
2023/08/15 05:55:27;;;;;;;3.80;2.92;;;;;22.00;98496.00;;;;5075186;28;20094;-64
2023/08/15 05:57:53;;;;;;;5.57;2.92;;;;;22.10;98491.00;;;;5075160;28;20048;-63
2023/08/15 06:00:23;;;;;;;5.22;2.90;;;;;22.10;98495.00;;;;5074832;28;20048;-63
2023/08/15 06:02:49;;;;;;;4.70;3.33;;;;;22.20;98507.00;;;;5075059;28;20052;-64
2023/08/15 06:05:17;;;;;;;4.88;3.42;;;;;22.20;98520.00;;;;5074863;28;20119;-63
2023/08/15 06:07:43;;;;;;;3.20;2.90;;;;;22.30;98522.00;;;;5074938;28;20123;-64
2023/08/15 06:10:10;;;;;;;4.10;3.67;;;;;22.40;98518.00;;;;5074636;28;20036;-63
2023/08/15 06:12:36;;;;;;;3.00;2.70;;;;;22.40;98519.00;;;;5074857;28;20430;-63
2023/08/15 06:15:03;;;;;;;3.45;3.00;;;;;22.50;98521.00;;;;5074655;28;20040;-63
2023/08/15 06:17:29;;;;;;;4.63;3.60;;;;;22.50;98515.00;;;;5074452;28;20055;-63
2023/08/15 06:19:56;;;;;;;4.70;4.10;;;;;22.50;98513.00;;;;5074452;28;20105;-63
2023/08/15 06:22:22;;;;;;;6.25;3.55;;;;;22.60;98509.00;;;;5074780;28;20055;-63
2023/08/15 06:24:49;;;;;;;4.05;2.90;;;;;22.60;98509.00;;;;5074567;28;20531;-63
2023/08/15 06:27:15;;;;;;;4.00;2.67;;;;;22.70;98512.00;;;;5074911;28;20390;-63
2023/08/15 06:29:42;;;;;;;6.03;4.28;;;;;22.80;98520.00;;;;5074343;28;20044;-63
2023/08/15 06:32:23;;;;;;;8.05;3.55;;;;;22.90;98525.00;;;;5074614;28;20507;-63
2023/08/15 06:34:50;;;;;;;4.13;3.47;;;;;22.90;98534.00;;;;5074401;28;20086;-64
2023/08/15 06:37:16;;;;;;;6.75;4.00;;;;;23.00;98530.00;;;;5074775;28;20397;-64
2023/08/15 06:39:43;;;;;;;3.53;2.63;;;;;23.10;98525.00;;;;5074180;28;20044;-64
2023/08/15 06:42:10;;;;;;;6.82;3.20;;;;;23.00;98530.00;;;;5074431;28;20044;-63
2023/08/15 06:44:37;;;;;;;6.80;2.78;;;;;23.10;98534.00;;;;5074104;28;20044;-64
2023/08/15 06:47:04;;;;;;;7.07;3.40;;;;;23.30;98542.00;;;;5056507;28;20036;-63
2023/08/15 06:49:30;;;;;;;5.60;3.38;;;;;23.30;98543.00;;;;5056152;28;20052;-63
2023/08/15 06:51:57;;;;;;;3.38;2.50;;;;;23.40;98547.00;;;;5056950;28;20040;-63
2023/08/15 06:54:24;;;;;;;4.75;2.78;;;;;23.50;98542.00;;;;5074996;28;20041;-63
2023/08/15 06:56:50;;;;;;;3.45;2.65;;;;;23.50;98549.00;;;;5074318;28;20495;-64
2023/08/15 06:59:18;;;;;;;5.07;2.55;;;;;23.60;98545.00;;;;5074517;28;20044;-62
2023/08/15 07:01:44;;;;;;;3.20;2.33;;;;;23.60;98554.00;;;;5057420;28;20055;-66
2023/08/15 07:04:14;;;;;;;5.70;2.85;;;;;23.70;98559.00;;;;5075237;28;20040;-63
2023/08/15 07:06:40;;;;;;;4.10;3.60;;;;;23.80;98565.00;;;;5041802;28;20044;-64
2023/08/15 07:09:07;;;;;;;5.68;4.05;;;;;23.90;98563.00;;;;5076148;28;20048;-63
2023/08/15 07:11:34;;;;;;;6.20;2.70;;;;;24.00;98556.00;;;;5040404;28;20041;-65
2023/08/15 07:14:00;;;;;;;5.22;2.60;;;;;24.20;98564.00;;;;5056617;28;20647;-64
2023/08/15 07:16:27;;;;;;;2.92;2.63;;;;;24.40;98565.00;;;;5056624;28;20408;-64
2023/08/15 07:18:54;;;;;;;4.05;2.30;;;;;24.60;98557.00;;;;5056006;28;20048;-64
2023/08/15 07:21:20;;;;;;;3.15;2.22;;;;;24.60;98555.00;;;;5055904;28;20557;-64
2023/08/15 07:23:48;;;;;;;2.58;2.00;;;;;24.60;98557.00;;;;5073549;28;20044;-64
2023/08/15 07:26:14;;;;;;;3.25;2.70;;;;;24.50;98553.00;;;;5073523;28;20420;-64
2023/08/15 07:28:41;;;;;;;4.78;2.20;;;;;24.60;98556.00;;;;5073429;28;20048;-64
2023/08/15 07:31:07;;;;;;;3.08;2.75;;;;;24.60;98550.00;;;;5055508;28;20497;-64
2023/08/15 07:33:34;;;;;;;2.42;2.17;;;;;24.60;98541.00;;;;5073182;28;20047;-64
2023/08/15 07:36:00;;;;;;;3.17;2.15;;;;;24.60;98547.00;;;;5073283;28;20048;-64
2023/08/15 07:38:27;;;;;;;5.20;2.40;;;;;24.60;98543.00;;;;5073424;28;20055;-63
2023/08/15 07:40:53;;;;;;;4.20;2.47;;;;;24.60;98545.00;;;;5038587;28;20045;-64
2023/08/15 07:43:20;;;;;;;2.60;2.20;;;;;24.60;98556.00;;;;5055223;28;20086;-64
2023/08/15 07:45:47;;;;;;;4.30;2.72;;;;;24.80;98554.00;;;;5055496;28;20118;-64
2023/08/15 07:48:13;;;;;;;4.55;3.33;;;;;24.80;98568.00;;;;5073038;28;20075;-64
2023/08/15 07:50:40;;;;;;;4.03;2.47;;;;;24.90;98572.00;;;;5072760;28;20032;-64
2023/08/15 07:53:07;;;;;;;5.95;3.03;;;;;24.90;98575.00;;;;5072835;28;20047;-63
2023/08/15 07:55:33;;;;;;;5.72;2.30;;;;;25.10;98580.00;;;;5072869;28;20044;-63
2023/08/15 07:58:00;;;;;;;5.20;2.00;;;;;25.30;98571.00;;;;5072842;28;20045;-64
2023/08/15 08:00:27;;;;;;;3.25;2.65;;;;;25.50;98571.00;;;;5054878;28;20458;-63
2023/08/15 08:02:53;;;;;;;3.17;2.17;;;;;25.60;98585.00;;;;5072718;28;20551;-63
2023/08/15 08:05:20;;;;;;;4.07;2.10;;;;;25.70;98584.00;;;;5072577;28;20048;-62
2023/08/15 08:07:50;;;;;;;2.22;1.98;;;;;25.90;98581.00;;;;5053990;28;20048;-63
2023/08/15 08:10:16;;;;;;;2.97;2.22;;;;;25.90;98576.00;;;;5072346;28;20048;-63
2023/08/15 08:12:45;;;;;;;3.67;1.98;;;;;26.10;98581.00;;;;5072532;28;20120;-63
2023/08/15 08:15:12;;;;;;;3.83;2.40;;;;;26.20;98575.00;;;;5054651;28;20052;-63
2023/08/15 08:17:38;;;;;;;5.18;2.30;;;;;26.40;98584.00;;;;5054487;28;20055;-64
2023/08/15 08:20:13;;;;;;;5.35;2.42;;;;;26.50;98577.00;;;;5071899;28;20097;-63
2023/08/15 08:22:39;;;;;;;3.47;2.17;;;;;26.60;98572.00;;;;5054146;28;20048;-64
2023/08/15 08:25:23;;;;;;;4.38;2.40;;;;;26.80;98572.00;;;;5072087;28;20072;-64
2023/08/15 08:27:50;;;;;;;3.33;2.22;;;;;26.90;98576.00;;;;5072402;28;20044;-64
2023/08/15 08:30:19;;;;;;;3.50;2.03;;;;;27.00;98573.00;;;;5071655;28;20121;-64
2023/08/15 08:32:46;;;;;;;4.15;2.45;;;;;27.00;98578.00;;;;5054220;28;20102;-64
2023/08/15 08:35:16;;;;;;;4.20;1.92;;;;;27.20;98577.00;;;;5071993;28;20102;-64
2023/08/15 08:37:44;;;;;;;3.33;2.33;;;;;27.40;98584.00;;;;5054535;28;20059;-63
2023/08/15 08:40:12;;;;;;;4.10;2.35;;;;;27.50;98586.00;;;;5037528;28;20118;-63
2023/08/15 08:42:43;;;;;;;2.58;2.00;;;;;27.70;98587.00;;;;5037557;28;20040;-63
2023/08/15 08:45:10;;;;;;;6.43;3.55;;;;;27.90;98589.00;;;;5054154;28;20505;-64
2023/08/15 08:47:39;;;;;;;8.20;2.80;;;;;28.10;98604.00;;;;5054338;28;20107;-64
2023/08/15 08:50:10;;;;;;;6.80;2.58;;;;;28.20;98602.00;;;;5054110;28;20138;-64
2023/08/15 08:52:40;;;;;;;3.03;2.28;;;;;28.30;98608.00;;;;5054223;28;20041;-64
2023/08/15 08:55:11;;;;;;;3.08;2.10;;;;;28.40;98604.00;;;;5037529;28;20055;-61
2023/08/15 08:57:40;;;;;;;5.30;2.38;;;;;28.60;98606.00;;;;5054126;28;20048;-63
2023/08/15 09:00:09;;;;;;;2.63;2.10;;;;;28.60;98617.00;;;;5053739;28;20049;-63
2023/08/15 09:02:36;;;;;;;3.75;2.38;;;;;28.60;98622.00;;;;5071602;28;20040;-64
2023/08/15 09:05:04;;;;;;;3.38;2.35;;;;;28.60;98638.00;;;;5053731;28;20044;-63
2023/08/15 09:07:33;;;;;;;2.67;2.33;;;;;28.70;98634.00;;;;5037512;28;20049;-64
2023/08/15 09:10:00;;;;;;;6.45;2.28;;;;;28.70;98636.00;;;;5071673;28;20131;-61
2023/08/15 09:12:40;;;;;;;3.25;2.50;;;;;28.70;98646.00;;;;5071923;28;20128;-61
2023/08/15 09:15:08;;;;;;;3.20;2.03;;;;;28.60;98656.00;;;;5053888;28;20459;-62
2023/08/15 09:17:35;;;;;;;4.82;1.95;;;;;28.60;98661.00;;;;5053824;28;20131;-62
2023/08/15 09:20:13;;;;;;;5.55;2.60;;;;;28.40;98653.00;;;;5059063;28;20053;-61
2023/08/15 09:22:45;;;;;;;4.32;2.15;;;;;28.20;98656.00;;;;5077956;28;20374;-62
2023/08/15 09:25:17;;;;;;;4.95;2.30;;;;;28.00;98653.00;;;;5059560;28;20048;-61
2023/08/15 09:27:44;;;;;;;6.10;2.60;;;;;27.80;98664.00;;;;5059518;28;20048;-61
2023/08/15 09:30:13;;;;;;;3.60;2.40;;;;;27.70;98655.00;;;;5076373;28;20040;-61
2023/08/15 09:32:41;;;;;;;6.57;2.25;;;;;27.50;98662.00;;;;5058187;28;20044;-62
2023/08/15 09:35:09;;;;;;;5.55;2.38;;;;;27.40;98673.00;;;;5057802;28;20046;-61
2023/08/15 09:37:43;;;;;;;5.50;3.17;;;;;27.30;98696.00;;;;5057853;28;20044;-62
2023/08/15 09:40:42;;;;;;;5.60;2.50;;;;;27.10;98703.00;;;;5076409;28;20051;-62
2023/08/15 09:43:14;;;;;;;4.32;2.30;;;;;26.80;98727.00;;;;5064969;28;20413;-62
2023/08/15 09:45:41;;;;;;;4.85;2.78;;;;;26.40;98724.00;;;;5058773;28;20041;-62
2023/08/15 09:48:08;;;;;;;5.78;3.05;;;;;25.90;98740.00;;;;5075928;28;20051;-60
2023/08/15 09:50:36;;;;;;;4.53;3.35;;;;;25.40;98767.00;;;;5075300;28;20390;-60
2023/08/15 09:53:04;;;;;;;8.15;3.67;;;;;25.10;98777.00;;;;5075451;28;20048;-62
2023/08/15 09:55:33;;;;;;;6.20;3.80;;;;;24.70;98792.00;;;;5057518;28;20127;-61
2023/08/15 09:57:59;;;;;;;6.97;4.00;;;;;24.20;98802.00;;;;5057635;28;20040;-61
2023/08/15 10:00:26;;;;;;;7.50;3.80;;;;;23.70;98815.00;;;;5057717;28;20052;-61
2023/08/15 10:03:00;;;;;;;9.25;3.83;;;;;23.50;98819.00;;;;5057946;28;20051;-61
2023/08/15 10:05:32;;;;;;;6.30;4.05;;;;;23.30;98813.00;;;;5040045;28;20079;-60
2023/08/15 10:07:59;;;;;;;8.43;4.40;;;;;23.20;98803.00;;;;5057089;28;20045;-61
2023/08/15 10:10:28;;;;;;;6.05;3.97;;;;;23.00;98798.00;;;;5056723;28;20289;-62
2023/08/15 10:12:56;;;;;;;6.28;3.92;;;;;22.90;98797.00;;;;5074991;28;20405;-62
2023/08/15 10:15:23;;;;;;;11.25;4.57;;;;;22.90;98777.00;;;;5074999;28;20049;-61
2023/08/15 10:17:50;;;;;;;5.28;3.75;;;;;22.80;98782.00;;;;5056847;28;20056;-60
2023/08/15 10:20:18;;;;;;;11.55;4.43;;;;;22.80;98792.00;;;;5056543;28;20048;-61
2023/08/15 10:22:49;;;;;;;9.48;4.60;;;;;22.70;98796.00;;;;5074815;28;20123;-61
2023/08/15 10:25:22;;;;;;;5.85;3.72;;;;;22.70;98786.00;;;;5057162;28;20052;-61
2023/08/15 10:27:53;;;;;;;9.13;4.10;;;;;22.70;98774.00;;;;5057384;28;20044;-61
2023/08/15 10:30:42;;;;;;;7.38;3.78;;;;;22.70;98780.00;;;;5055772;28;20311;-62
2023/08/15 10:33:20;;;;;;;5.82;3.83;;;;;22.60;98777.00;;;;5074458;28;20050;-62
2023/08/15 10:35:56;;;;;;;7.38;3.42;;;;;22.70;98768.00;;;;5074431;28;20047;-63
2023/08/15 10:38:30;;;;;;;5.60;3.47;;;;;22.70;98760.00;;;;5074596;28;20044;-62
2023/08/15 10:41:04;;;;;;;8.77;3.90;;;;;22.80;98756.00;;;;5056577;28;20057;-61
2023/08/15 10:43:33;;;;;;;7.55;3.65;;;;;22.90;98756.00;;;;5074431;28;20037;-62
2023/08/15 10:46:01;;;;;;;5.10;3.35;;;;;23.00;98749.00;;;;5056750;28;20147;-63
2023/08/15 10:48:40;;;;;;;5.13;3.50;;;;;23.10;98749.00;;;;5057011;28;20048;-62
2023/08/15 10:51:36;;;;;;;5.72;3.50;;;;;23.10;98753.00;;;;5074164;28;20037;-62
2023/08/15 10:54:08;;;;;;;6.35;3.63;;;;;23.20;98748.00;;;;5074350;28;20066;-62
2023/08/15 10:56:37;;;;;;;8.23;3.83;;;;;23.20;98745.00;;;;5056531;28;20098;-62
2023/08/15 10:59:12;;;;;;;9.50;4.10;;;;;23.20;98732.00;;;;5074521;28;20066;-63
2023/08/15 11:01:44;;;;;;;6.50;3.35;;;;;23.30;98720.00;;;;5075056;28;20063;-62
2023/08/15 11:04:16;;;;;;;7.38;3.22;;;;;23.50;98714.00;;;;5075238;28;20044;-62
2023/08/15 11:06:48;;;;;;;6.57;3.90;;;;;23.70;98714.00;;;;5040883;28;20053;-62
2023/08/15 11:09:16;;;;;;;6.63;3.88;;;;;23.80;98715.00;;;;5057259;28;20052;-63
2023/08/15 11:11:44;;;;;;;8.55;3.40;;;;;24.00;98723.00;;;;5056778;28;20047;-62
2023/08/15 11:14:18;;;;;;;6.38;3.28;;;;;24.10;98719.00;;;;5057332;28;20552;-62
2023/08/15 11:16:49;;;;;;;4.68;3.15;;;;;24.10;98722.00;;;;5057223;28;20068;-62
2023/08/15 11:19:18;;;;;;;4.57;3.08;;;;;24.00;98722.00;;;;5056072;28;20052;-65
2023/08/15 11:21:44;;;;;;;5.45;3.65;;;;;23.90;98723.00;;;;5073657;28;20040;-64
2023/08/15 11:24:11;;;;;;;4.47;3.38;;;;;23.90;98719.00;;;;5055488;28;20040;-63
2023/08/15 11:26:39;;;;;;;7.85;3.50;;;;;23.80;98709.00;;;;5073755;28;20044;-63
2023/08/15 11:29:08;;;;;;;6.82;3.53;;;;;23.70;98709.00;;;;5073489;28;20044;-64
2023/08/15 11:31:35;;;;;;;5.22;2.95;;;;;23.70;98716.00;;;;5055552;28;20059;-62
2023/08/15 11:34:03;;;;;;;4.22;3.13;;;;;23.60;98720.00;;;;5073407;28;20043;-63
2023/08/15 11:36:29;;;;;;;4.75;3.75;;;;;23.60;98713.00;;;;5073308;28;20041;-63
2023/08/15 11:39:00;;;;;;;5.72;3.50;;;;;23.60;98723.00;;;;5073514;28;20041;-63
2023/08/15 11:41:26;;;;;;;5.88;4.85;;;;;23.70;98723.00;;;;5072970;28;20520;-63
2023/08/15 11:43:53;;;;;;;4.90;3.20;;;;;23.80;98704.00;;;;5072780;28;20048;-63
2023/08/15 11:46:20;;;;;;;5.22;3.65;;;;;23.90;98709.00;;;;5054973;28;20048;-63
2023/08/15 11:48:46;;;;;;;5.13;3.38;;;;;24.00;98707.00;;;;5054996;28;20052;-63
2023/08/15 11:51:20;;;;;;;7.00;3.67;;;;;24.20;98711.00;;;;5072697;28;20084;-63
2023/08/15 11:53:51;;;;;;;4.63;3.20;;;;;24.30;98721.00;;;;5072851;28;20044;-63
2023/08/15 11:56:19;;;;;;;5.38;2.80;;;;;24.20;98734.00;;;;5072892;28;20040;-63
2023/08/15 11:58:46;;;;;;;5.32;3.15;;;;;24.20;98732.00;;;;5072674;28;20045;-63
2023/08/15 12:01:13;;;;;;;3.75;3.17;;;;;24.30;98721.00;;;;5072546;28;20545;-63
2023/08/15 12:03:39;;;;;;;4.78;2.92;;;;;24.40;98731.00;;;;5054809;28;20387;-63
2023/08/15 12:06:09;;;;;;;4.20;2.70;;;;;24.50;98737.00;;;;5072792;28;20044;-63
2023/08/15 12:08:37;;;;;;;4.72;2.88;;;;;24.70;98729.00;;;;5072612;28;20059;-63
2023/08/15 12:11:06;;;;;;;3.05;2.75;;;;;24.80;98731.00;;;;5054484;28;20054;-63
2023/08/15 12:13:42;;;;;;;5.68;3.35;;;;;25.00;98722.00;;;;5072580;28;20066;-63
2023/08/15 12:16:10;;;;;;;5.22;3.10;;;;;25.20;98737.00;;;;5072555;28;20036;-63
2023/08/15 12:18:39;;;;;;;5.43;3.17;;;;;25.40;98743.00;;;;5054758;28;20508;-63
2023/08/15 12:21:07;;;;;;;5.25;2.92;;;;;25.60;98737.00;;;;5072264;28;20063;-63